createdAt,value
2022-12-09T00:03:06.932Z,79.65
2022-12-09T00:08:08.715Z,80.96
2022-12-09T00:13:10.629Z,80.97
2022-12-09T00:18:12.245Z,80.20
2022-12-09T00:23:14.028Z,80.49
2022-12-09T00:28:15.837Z,81.86
2022-12-09T00:33:17.477Z,81.32
2022-12-09T00:38:19.024Z,82.22
2022-12-09T00:43:20.833Z,81.62
2022-12-09T00:48:22.495Z,81.45
2022-12-09T00:53:24.114Z,80.69
2022-12-09T00:58:26.236Z,80.31
2022-12-09T01:03:28.293Z,80.14
2022-12-09T01:08:29.993Z,80.18
2022-12-09T01:13:31.625Z,79.67
2022-12-09T01:18:33.363Z,80.52
2022-12-09T01:23:35.327Z,79.99
2022-12-09T01:28:39.576Z,80.33
2022-12-09T01:33:42.485Z,80.56
2022-12-09T01:38:44.449Z,80.35
2022-12-09T01:43:46.612Z,80.27
2022-12-09T01:48:49.403Z,80.22
2022-12-09T01:53:51.906Z,79.38
2022-12-09T01:58:54.552Z,79.87
2022-12-09T02:03:56.909Z,79.80
2022-12-09T02:08:59.526Z,80.38
2022-12-09T02:14:09.567Z,79.78
2022-12-09T02:19:23.308Z,79.87
2022-12-09T02:24:46.497Z,80.17
2022-12-09T02:29:48.381Z,80.22
2022-12-09T02:34:55.918Z,81.31
2022-12-09T02:40:11.875Z,83.12
2022-12-09T02:45:17.011Z,83.92
2022-12-09T02:50:26.053Z,82.58
2022-12-09T02:55:29.188Z,83.75
2022-12-09T03:00:31.230Z,82.88
2022-12-09T03:05:34.098Z,82.61
2022-12-09T03:10:53.633Z,84.74
2022-12-09T03:16:00.316Z,86.56
2022-12-09T03:21:03.975Z,84.94
2022-12-09T03:26:07.391Z,83.85
2022-12-09T03:31:14.899Z,83.62
2022-12-09T03:36:17.538Z,83.84
2022-12-09T03:41:28.979Z,82.85
2022-12-09T03:46:30.837Z,83.58
2022-12-09T03:51:38.209Z,83.79
2022-12-09T03:56:43.109Z,83.65
2022-12-09T04:01:46.410Z,85.41
2022-12-09T04:06:51.124Z,85.20
2022-12-09T04:11:53.077Z,84.76
2022-12-09T04:16:54.752Z,83.37
2022-12-09T04:21:56.605Z,84.14
2022-12-09T04:26:58.637Z,84.24
2022-12-09T04:32:00.563Z,83.57
2022-12-09T04:37:02.386Z,83.26
2022-12-09T04:42:04.044Z,82.03
2022-12-09T04:47:05.904Z,82.54
2022-12-09T04:52:07.987Z,82.71
2022-12-09T04:57:09.857Z,82.70
2022-12-09T05:02:12.022Z,82.81
2022-12-09T05:07:13.986Z,82.13
2022-12-09T05:12:15.827Z,81.99
2022-12-09T05:17:18.928Z,82.21
2022-12-09T05:22:20.657Z,82.65
2022-12-09T05:27:22.409Z,82.21
2022-12-09T05:32:24.476Z,82.66
2022-12-09T05:37:26.271Z,82.07
2022-12-09T05:42:28.238Z,82.47
2022-12-09T05:47:30.081Z,82.06
2022-12-09T05:52:31.806Z,83.21
2022-12-09T05:57:34.398Z,83.12
2022-12-09T06:02:36.463Z,83.82
2022-12-09T06:07:38.547Z,84.38
2022-12-09T06:12:40.592Z,84.69
2022-12-09T06:17:42.565Z,84.91
2022-12-09T06:22:44.671Z,86.09
2022-12-09T06:27:46.763Z,84.70
2022-12-09T06:32:48.526Z,83.91
2022-12-09T06:37:54.153Z,84.04
2022-12-09T06:42:56.037Z,82.92
2022-12-09T06:47:58.095Z,82.49
2022-12-09T06:53:00.218Z,81.65
2022-12-09T06:58:01.897Z,81.34
2022-12-09T07:03:03.680Z,81.13
2022-12-09T07:08:06.078Z,81.08
2022-12-09T07:13:07.903Z,81.08
2022-12-09T07:18:09.540Z,81.57
2022-12-09T07:23:13.728Z,81.13
2022-12-09T07:28:15.678Z,81.10
2022-12-09T07:33:17.372Z,81.23
2022-12-09T07:38:19.455Z,80.98
2022-12-09T07:43:21.095Z,80.49
2022-12-09T07:48:23.171Z,80.51
2022-12-09T07:53:24.883Z,79.61
2022-12-09T07:58:26.473Z,80.13
2022-12-09T08:03:28.325Z,81.00
2022-12-09T08:08:31.346Z,80.46
2022-12-09T08:13:33.513Z,79.56
2022-12-09T08:18:36.638Z,80.46
2022-12-09T08:23:39.498Z,79.57
2022-12-09T08:28:41.341Z,79.53
2022-12-09T08:33:43.392Z,78.68
2022-12-09T08:38:45.582Z,79.43
2022-12-09T08:43:47.800Z,79.01
2022-12-09T08:48:50.367Z,79.16
2022-12-09T08:53:52.340Z,79.01
2022-12-09T08:58:54.883Z,77.49
2022-12-09T09:03:56.740Z,77.47
2022-12-09T09:08:59.277Z,77.47
2022-12-09T09:14:03.509Z,77.53
2022-12-09T09:19:06.104Z,77.74
2022-12-09T09:24:12.874Z,77.52
2022-12-09T09:29:16.704Z,77.44
2022-12-09T09:34:18.961Z,77.89
2022-12-09T09:39:20.893Z,77.67
2022-12-09T09:44:28.080Z,77.13
2022-12-09T09:49:36.258Z,76.82
2022-12-09T09:54:38.075Z,75.73
2022-12-09T09:59:52.332Z,75.67
2022-12-09T10:05:08.076Z,75.60
2022-12-09T10:10:13.402Z,75.88
2022-12-09T10:15:20.538Z,75.02
2022-12-09T10:20:30.634Z,75.53
2022-12-09T10:25:35.553Z,74.52
2022-12-09T10:30:44.106Z,73.65
2022-12-09T10:35:47.150Z,72.66
2022-12-09T10:41:01.367Z,73.07
2022-12-09T10:46:21.290Z,72.43
2022-12-09T10:51:32.763Z,72.41
2022-12-09T10:56:36.118Z,72.19
2022-12-09T11:01:57.637Z,72.61
2022-12-09T11:07:05.378Z,73.38
2022-12-09T11:12:41.563Z,72.07
2022-12-09T11:17:56.257Z,71.41
2022-12-09T11:23:06.429Z,71.21
2022-12-09T11:28:08.132Z,71.08
2022-12-09T11:33:16.518Z,70.91
2022-12-09T11:38:30.410Z,70.75
2022-12-09T11:43:35.346Z,70.40
2022-12-09T11:48:43.271Z,70.51
2022-12-09T11:53:45.772Z,70.16
2022-12-09T11:58:56.323Z,70.13
2022-12-09T12:04:05.008Z,69.79
2022-12-09T12:09:18.845Z,69.07
2022-12-09T12:14:25.384Z,69.28
2022-12-09T12:19:34.942Z,69.69
2022-12-09T12:25:09.904Z,68.90
2022-12-09T12:30:24.030Z,68.47
2022-12-09T12:36:01.583Z,68.29
2022-12-09T12:41:09.142Z,68.24
2022-12-09T12:46:33.960Z,68.37
2022-12-09T12:51:52.657Z,67.98
2022-12-09T12:57:09.387Z,68.21
2022-12-09T13:02:33.210Z,68.62
2022-12-09T13:07:41.644Z,69.29
2022-12-09T13:13:01.525Z,70.09
2022-12-09T13:18:12.035Z,70.74
2022-12-09T13:23:19.739Z,70.48
2022-12-09T13:28:37.403Z,69.72
2022-12-09T13:33:44.601Z,70.16
2022-12-09T13:38:46.197Z,70.29
2022-12-09T13:43:47.856Z,69.68
2022-12-09T13:48:49.990Z,70.26
2022-12-09T13:54:00.568Z,70.67
2022-12-09T13:59:31.253Z,72.23
2022-12-09T14:04:42.763Z,73.24
2022-12-09T14:09:44.269Z,74.35
2022-12-09T14:14:49.668Z,74.93
2022-12-09T14:19:51.206Z,74.86
2022-12-09T14:24:54.156Z,75.07
2022-12-09T14:30:00.965Z,75.30
2022-12-09T14:35:10.311Z,76.13
2022-12-09T14:40:14.689Z,75.56
2022-12-09T14:45:30.960Z,75.52
2022-12-09T14:50:32.515Z,76.18
2022-12-09T14:55:38.781Z,76.59
2022-12-09T15:00:41.566Z,76.74
2022-12-09T15:06:20.251Z,77.69
2022-12-09T15:11:31.519Z,77.25
2022-12-09T15:16:33.250Z,77.32
2022-12-09T15:21:34.852Z,77.45
2022-12-09T15:26:36.405Z,77.91
2022-12-09T15:31:47.612Z,78.12
2022-12-09T15:36:52.462Z,78.92
2022-12-09T15:42:07.977Z,78.64
2022-12-09T15:47:19.145Z,79.87
2022-12-09T15:52:23.651Z,80.93
2022-12-09T15:57:28.169Z,79.19
2022-12-09T16:02:32.925Z,79.06
2022-12-09T16:07:34.749Z,80.41
2022-12-09T16:12:37.258Z,79.56
2022-12-09T16:17:52.520Z,80.05
2022-12-09T16:22:54.107Z,80.25
2022-12-09T16:28:05.957Z,79.62
2022-12-09T16:33:20.639Z,79.09
2022-12-09T16:38:22.741Z,79.55
2022-12-09T16:43:25.560Z,79.40
2022-12-09T16:48:29.289Z,79.94
2022-12-09T16:53:43.250Z,80.01
2022-12-09T16:58:44.872Z,81.16
2022-12-09T17:03:53.825Z,82.10
2022-12-09T17:08:55.403Z,82.07
2022-12-09T17:13:56.998Z,81.22
2022-12-09T17:18:58.567Z,82.53
2022-12-09T17:24:00.127Z,81.47
2022-12-09T17:29:02.244Z,81.15
2022-12-09T17:34:04.500Z,81.48
2022-12-09T17:39:07.290Z,81.79
2022-12-09T17:44:09.416Z,81.41
2022-12-09T17:49:10.967Z,82.34
2022-12-09T17:54:12.689Z,79.53
2022-12-09T17:59:15.775Z,80.14
2022-12-09T18:04:17.436Z,80.07
2022-12-09T18:09:19.766Z,80.25
2022-12-09T18:14:21.394Z,80.77
2022-12-09T18:19:24.912Z,79.32
2022-12-09T18:24:27.137Z,79.50
2022-12-09T18:29:29.164Z,80.11
2022-12-09T18:34:32.832Z,78.95
2022-12-09T18:39:34.448Z,78.42
2022-12-09T18:44:36.085Z,78.13
2022-12-09T18:49:37.659Z,78.88
2022-12-09T18:54:39.433Z,78.68
2022-12-09T18:59:41.005Z,78.16
2022-12-09T19:04:42.662Z,77.65
2022-12-09T19:09:44.268Z,77.50
2022-12-09T19:14:45.825Z,77.28
2022-12-09T19:19:48.877Z,77.34
2022-12-09T19:24:50.493Z,76.73
2022-12-09T19:29:52.074Z,77.35
2022-12-09T19:34:53.638Z,77.31
2022-12-09T19:39:55.223Z,77.03
2022-12-09T19:45:01.986Z,77.11
2022-12-09T19:50:05.456Z,77.53
2022-12-09T19:55:08.531Z,77.39
2022-12-09T20:00:11.286Z,76.89
2022-12-09T20:05:12.893Z,77.43
2022-12-09T20:10:14.941Z,78.35
2022-12-09T20:15:16.615Z,78.21
2022-12-09T20:20:18.241Z,78.94
2022-12-09T20:25:19.877Z,79.09
2022-12-09T20:30:21.523Z,77.64
2022-12-09T20:35:23.490Z,77.18
2022-12-09T20:40:25.067Z,77.34
2022-12-09T20:45:26.655Z,78.01
2022-12-09T20:50:31.116Z,78.82
2022-12-09T20:55:35.184Z,77.61
2022-12-09T21:00:36.748Z,78.00
2022-12-09T21:05:38.381Z,78.35
2022-12-09T21:10:39.924Z,78.92
2022-12-09T21:15:41.481Z,78.57
2022-12-09T21:20:44.429Z,80.70
2022-12-09T21:25:46.239Z,78.53
2022-12-09T21:30:47.933Z,79.35
2022-12-09T21:35:49.489Z,79.78
2022-12-09T21:40:51.134Z,80.43
2022-12-09T21:45:52.738Z,80.09
2022-12-09T21:50:58.232Z,79.79
2022-12-09T21:56:08.946Z,79.25
2022-12-09T22:01:13.169Z,80.47
2022-12-09T22:06:15.637Z,81.14
2022-12-09T22:11:18.779Z,82.47
2022-12-09T22:16:22.956Z,84.02
2022-12-09T22:21:27.309Z,84.76
2022-12-09T22:26:30.450Z,82.35
2022-12-09T22:31:35.373Z,84.37
2022-12-09T22:36:37.218Z,81.66
2022-12-09T22:41:38.923Z,84.60
2022-12-09T22:46:42.163Z,82.42
2022-12-09T22:51:44.404Z,82.62
2022-12-09T22:56:46.051Z,81.91
2022-12-09T23:01:50.000Z,83.92
2022-12-09T23:06:51.649Z,82.29
2022-12-09T23:11:53.911Z,81.29
2022-12-09T23:16:55.469Z,82.12
2022-12-09T23:21:57.122Z,81.78
2022-12-09T23:26:59.143Z,81.49
2022-12-09T23:32:00.979Z,80.91
2022-12-09T23:37:03.643Z,81.65
2022-12-09T23:42:05.523Z,80.92
2022-12-09T23:47:07.226Z,81.91
2022-12-09T23:52:10.424Z,82.62
2022-12-09T23:57:11.977Z,80.83
